createdAt,value
2018-10-19T00:01:24.549Z,13.90
2018-10-19T00:03:54.131Z,13.70
2018-10-19T00:06:22.971Z,13.80
2018-10-19T00:08:51.811Z,13.70
2018-10-19T00:11:20.662Z,13.70
2018-10-19T00:13:49.503Z,13.70
2018-10-19T00:16:19.085Z,13.50
2018-10-19T00:18:47.914Z,13.70
2018-10-19T00:21:16.758Z,13.70
2018-10-19T00:23:45.588Z,13.70
2018-10-19T00:26:15.185Z,13.50
2018-10-19T00:28:44.791Z,13.50
2018-10-19T00:31:14.376Z,13.40
2018-10-19T00:33:43.223Z,13.40
2018-10-19T00:36:12.042Z,13.30
2018-10-19T00:38:40.881Z,13.40
2018-10-19T00:41:10.556Z,13.30
2018-10-19T00:43:39.311Z,13.40
2018-10-19T00:46:08.148Z,13.30
2018-10-19T00:48:37.749Z,13.20
2018-10-19T00:51:06.617Z,13.30
2018-10-19T00:53:35.432Z,13.10
2018-10-19T00:56:05.026Z,13.30
2018-10-19T00:58:33.883Z,13.30
2018-10-19T01:01:02.714Z,13.30
2018-10-19T01:03:32.298Z,13.30
2018-10-19T01:06:01.126Z,13.40
2018-10-19T01:08:30.706Z,13.30
2018-10-19T01:10:59.558Z,13.40
2018-10-19T01:13:28.394Z,13.30
2018-10-19T01:15:57.237Z,13.30
2018-10-19T01:18:26.077Z,13.30
2018-10-19T01:20:55.668Z,13.20
2018-10-19T01:23:24.492Z,13.30
2018-10-19T01:25:53.329Z,13.20
2018-10-19T01:28:22.164Z,13.20
2018-10-19T01:30:51.747Z,13.10
2018-10-19T01:33:20.580Z,13.10
2018-10-19T01:35:49.418Z,13.00
2018-10-19T01:38:18.984Z,12.90
2018-10-19T01:40:47.821Z,12.90
2018-10-19T01:43:16.674Z,12.90
2018-10-19T01:45:45.508Z,12.80
2018-10-19T01:48:15.082Z,12.70
2018-10-19T01:50:43.925Z,12.80
2018-10-19T01:53:12.814Z,12.70
2018-10-19T01:55:41.593Z,12.70
2018-10-19T01:58:10.439Z,12.60
2018-10-19T02:00:39.273Z,12.60
2018-10-19T02:03:08.119Z,12.60
2018-10-19T02:05:36.937Z,12.60
2018-10-19T02:08:06.518Z,12.70
2018-10-19T02:10:35.371Z,12.60
2018-10-19T02:13:04.218Z,12.60
2018-10-19T02:15:33.074Z,12.60
2018-10-19T02:18:01.926Z,12.70
2018-10-19T02:20:30.774Z,12.70
2018-10-19T02:22:59.615Z,12.60
2018-10-19T02:25:28.458Z,12.60
2018-10-19T02:27:57.304Z,12.50
2018-10-19T02:30:26.143Z,12.50
2018-10-19T02:32:55.781Z,12.40
2018-10-19T02:35:24.613Z,12.40
2018-10-19T02:37:53.450Z,12.50
2018-10-19T02:40:22.287Z,12.40
2018-10-19T02:42:51.123Z,12.30
2018-10-19T02:45:19.969Z,12.40
2018-10-19T02:47:48.804Z,12.30
2018-10-19T02:50:17.672Z,12.30
2018-10-19T02:52:47.259Z,12.20
2018-10-19T02:55:16.084Z,12.40
2018-10-19T02:57:45.663Z,12.20
2018-10-19T03:02:44.682Z,12.10
2018-10-19T03:05:13.645Z,12.00
2018-10-19T03:07:42.376Z,12.10
2018-10-19T03:10:11.223Z,12.00
2018-10-19T03:12:40.056Z,12.10
2018-10-19T03:15:09.737Z,12.10
2018-10-19T03:17:38.479Z,12.10
2018-10-19T03:20:07.355Z,12.10
2018-10-19T03:22:36.163Z,12.00
2018-10-19T03:25:05.009Z,12.00
2018-10-19T03:27:34.591Z,11.90
2018-10-19T03:30:03.435Z,12.00
2018-10-19T03:32:32.273Z,11.90
2018-10-19T03:35:01.152Z,11.80
2018-10-19T03:37:29.946Z,11.70
2018-10-19T03:39:58.785Z,11.60
2018-10-19T03:42:27.623Z,11.60
2018-10-19T03:44:57.246Z,11.50
2018-10-19T03:47:26.055Z,11.60
2018-10-19T03:49:55.643Z,11.50
2018-10-19T03:52:24.469Z,11.40
2018-10-19T03:54:53.337Z,11.40
2018-10-19T03:57:22.915Z,11.30
2018-10-19T03:59:51.753Z,11.30
2018-10-19T04:02:20.594Z,11.30
2018-10-19T04:04:49.444Z,11.20
2018-10-19T04:07:18.312Z,11.20
2018-10-19T04:09:47.149Z,11.20
2018-10-19T04:12:15.989Z,11.20
2018-10-19T04:14:44.834Z,11.20
2018-10-19T04:17:14.476Z,11.20
2018-10-19T04:19:43.252Z,11.20
2018-10-19T04:22:12.105Z,11.20
2018-10-19T04:24:40.933Z,11.20
2018-10-19T04:27:10.550Z,11.20
2018-10-19T04:29:40.104Z,11.20
2018-10-19T04:32:08.932Z,11.10
2018-10-19T04:34:37.779Z,11.10
2018-10-19T04:37:06.602Z,11.10
2018-10-19T04:39:35.451Z,11.00
2018-10-19T04:42:04.482Z,11.20
2018-10-19T04:44:33.138Z,11.00
2018-10-19T04:47:02.063Z,11.00
2018-10-19T04:49:30.823Z,10.90
2018-10-19T04:51:59.676Z,10.90
2018-10-19T04:54:28.522Z,11.00
2018-10-19T04:56:57.398Z,10.90
2018-10-19T04:59:26.209Z,11.00
2018-10-19T05:01:55.050Z,10.90
2018-10-19T05:04:23.898Z,11.00
2018-10-19T05:06:52.737Z,10.90
2018-10-19T05:09:21.575Z,10.90
2018-10-19T05:11:50.417Z,10.90
2018-10-19T05:14:19.288Z,10.90
2018-10-19T05:16:48.093Z,10.90
2018-10-19T05:19:16.920Z,10.90
2018-10-19T05:21:45.755Z,10.80
2018-10-19T05:24:14.665Z,10.80
2018-10-19T05:26:43.453Z,10.90
2018-10-19T05:29:12.377Z,10.90
2018-10-19T05:31:41.123Z,10.80
2018-10-19T05:34:09.965Z,10.80
2018-10-19T05:39:08.214Z,10.90
2018-10-19T05:41:37.052Z,10.80
2018-10-19T05:44:05.920Z,10.70
2018-10-19T05:46:34.730Z,10.80
2018-10-19T05:49:03.583Z,10.90
2018-10-19T05:51:32.425Z,10.80
2018-10-19T05:54:01.285Z,10.80
2018-10-19T05:56:30.867Z,10.70
2018-10-19T05:58:59.739Z,10.90
2018-10-19T06:01:28.579Z,10.90
2018-10-19T06:03:57.419Z,10.90
2018-10-19T06:06:26.260Z,10.80
2018-10-19T06:08:55.098Z,10.80
2018-10-19T06:11:23.934Z,10.80
2018-10-19T06:13:53.590Z,10.80
2018-10-19T06:16:22.410Z,10.80
2018-10-19T06:18:52.885Z,10.70
2018-10-19T06:21:21.742Z,10.70
2018-10-19T06:23:51.328Z,10.70
2018-10-19T06:26:20.235Z,10.80
2018-10-19T06:28:49.024Z,10.80
2018-10-19T06:31:18.628Z,10.80
2018-10-19T06:33:47.498Z,10.90
2018-10-19T06:36:16.328Z,10.90
2018-10-19T06:38:45.160Z,10.80
2018-10-19T06:41:14.811Z,10.80
2018-10-19T06:43:44.658Z,10.80
2018-10-19T06:46:13.413Z,10.90
2018-10-19T06:48:42.298Z,10.80
2018-10-19T06:51:11.133Z,10.90
2018-10-19T06:53:40.077Z,10.90
2018-10-19T06:56:09.711Z,10.90
2018-10-19T06:58:38.500Z,11.00
2018-10-19T07:01:07.344Z,11.00
2018-10-19T07:03:36.188Z,11.10
2018-10-19T07:06:05.056Z,11.10
2018-10-19T07:08:34.631Z,11.10
2018-10-19T07:11:03.559Z,11.10
2018-10-19T07:13:32.331Z,11.20
2018-10-19T07:16:01.974Z,11.20
2018-10-19T07:18:30.778Z,11.20
2018-10-19T07:20:59.644Z,11.30
2018-10-19T07:23:28.495Z,11.30
2018-10-19T07:25:58.078Z,11.20
2018-10-19T07:28:26.918Z,11.20
2018-10-19T07:30:55.782Z,11.30
2018-10-19T07:33:24.637Z,11.40
2018-10-19T07:35:53.493Z,11.50
2018-10-19T07:38:22.350Z,11.60
2018-10-19T07:40:51.206Z,11.70
2018-10-19T07:43:20.046Z,11.70
2018-10-19T07:45:48.892Z,11.70
2018-10-19T07:48:17.801Z,11.80
2018-10-19T07:50:46.596Z,11.80
2018-10-19T07:53:16.199Z,11.80
2018-10-19T07:55:45.056Z,12.00
2018-10-19T07:58:13.904Z,12.00
2018-10-19T08:00:42.798Z,12.10
2018-10-19T08:03:11.622Z,12.20
2018-10-19T08:05:40.453Z,12.30
2018-10-19T08:08:10.125Z,12.30
2018-10-19T08:10:39.672Z,12.40
2018-10-19T08:13:08.512Z,12.50
2018-10-19T08:15:37.359Z,12.60
2018-10-19T08:18:06.227Z,12.60
2018-10-19T08:20:35.077Z,12.70
2018-10-19T08:23:03.931Z,12.80
2018-10-19T08:25:32.795Z,12.90
2018-10-19T08:28:02.394Z,12.90
2018-10-19T08:30:31.543Z,13.10
2018-10-19T08:33:00.282Z,13.20
2018-10-19T08:35:29.128Z,13.20
2018-10-19T08:37:57.974Z,13.30
2018-10-19T08:40:26.804Z,13.30
2018-10-19T08:42:55.651Z,13.40
2018-10-19T08:45:24.487Z,13.50
2018-10-19T08:47:53.330Z,13.50
2018-10-19T08:50:22.925Z,13.60
2018-10-19T08:52:51.785Z,13.70
2018-10-19T08:55:20.634Z,13.80
2018-10-19T08:57:49.524Z,13.80
2018-10-19T09:00:18.371Z,13.90
2018-10-19T09:02:47.161Z,13.90
2018-10-19T09:05:16.077Z,14.00
2018-10-19T09:07:44.872Z,14.10
2018-10-19T09:10:13.730Z,14.20
2018-10-19T09:12:42.694Z,14.30
2018-10-19T09:15:11.720Z,14.40
2018-10-19T09:17:40.550Z,14.40
2018-10-19T09:20:09.390Z,14.50
2018-10-19T09:22:38.237Z,14.60
2018-10-19T09:25:07.099Z,14.70
2018-10-19T09:27:36.670Z,14.70
2018-10-19T09:30:06.272Z,14.90
2018-10-19T09:32:35.123Z,14.90
2018-10-19T09:35:04.053Z,14.90
2018-10-19T09:37:32.834Z,15.00
2018-10-19T09:40:01.725Z,15.10
2018-10-19T09:42:30.525Z,15.20
2018-10-19T09:44:59.371Z,15.30
2018-10-19T09:47:28.233Z,15.40
2018-10-19T09:49:57.076Z,15.50
2018-10-19T09:52:25.924Z,15.40
2018-10-19T09:54:54.802Z,15.40
2018-10-19T09:57:24.368Z,15.50
2018-10-19T09:59:53.229Z,15.60
2018-10-19T10:02:22.079Z,15.60
2018-10-19T10:04:51.659Z,15.50
2018-10-19T10:07:21.248Z,15.60
2018-10-19T10:09:50.103Z,15.80
2018-10-19T10:12:18.940Z,15.80
2018-10-19T10:14:47.815Z,15.80
2018-10-19T10:17:16.622Z,15.90
2018-10-19T10:19:45.474Z,15.80
2018-10-19T10:22:14.389Z,15.80
2018-10-19T10:24:43.205Z,16.00
2018-10-19T10:27:12.021Z,16.10
2018-10-19T10:29:40.918Z,16.10
2018-10-19T10:32:09.768Z,16.10
2018-10-19T10:34:38.615Z,16.20
2018-10-19T10:37:07.495Z,16.30
2018-10-19T10:39:37.091Z,16.40
2018-10-19T10:42:05.942Z,16.50
2018-10-19T10:44:34.777Z,16.60
2018-10-19T10:47:03.669Z,16.60
2018-10-19T10:49:33.261Z,16.60
2018-10-19T10:52:02.110Z,16.60
2018-10-19T10:54:30.934Z,16.70
2018-10-19T10:56:59.768Z,16.90
2018-10-19T10:59:28.615Z,17.00
2018-10-19T11:01:57.474Z,17.00
2018-10-19T11:04:26.319Z,17.10
2018-10-19T11:06:55.202Z,17.10
2018-10-19T11:09:24.740Z,17.00
2018-10-19T11:11:53.605Z,17.10
2018-10-19T11:14:22.485Z,17.20
2018-10-19T11:16:51.279Z,17.30
2018-10-19T11:19:20.170Z,17.40
2018-10-19T11:21:49.002Z,17.40
2018-10-19T11:26:47.304Z,17.40
2018-10-19T11:29:16.909Z,17.40
2018-10-19T11:31:45.755Z,17.40
2018-10-19T11:34:14.628Z,17.50
2018-10-19T11:36:44.198Z,17.60
2018-10-19T11:39:13.792Z,17.40
2018-10-19T11:41:42.645Z,17.40
2018-10-19T11:44:11.504Z,17.30
2018-10-19T11:46:40.385Z,17.30
2018-10-19T11:49:10.059Z,17.40
2018-10-19T11:51:39.575Z,17.40
2018-10-19T11:54:08.446Z,17.50
2018-10-19T11:56:37.300Z,17.50
2018-10-19T11:59:06.152Z,17.50
2018-10-19T12:01:35.005Z,17.50
2018-10-19T12:04:03.909Z,17.60
2018-10-19T12:06:32.685Z,17.60
2018-10-19T12:09:01.532Z,17.70
2018-10-19T12:11:30.368Z,17.70
2018-10-19T12:13:59.204Z,17.80
2018-10-19T12:16:28.789Z,17.80
2018-10-19T12:18:57.662Z,18.10
2018-10-19T12:21:26.520Z,18.10
2018-10-19T12:23:55.331Z,18.20
2018-10-19T12:26:24.187Z,18.30
2018-10-19T12:28:53.052Z,18.20
2018-10-19T12:31:21.936Z,18.30
2018-10-19T12:33:50.781Z,18.30
2018-10-19T12:36:19.635Z,18.20
2018-10-19T12:38:48.480Z,18.20
2018-10-19T12:41:17.427Z,18.10
2018-10-19T12:43:46.179Z,18.10
2018-10-19T12:49:09.446Z,18.40
2018-10-19T12:51:38.266Z,18.50
2018-10-19T12:54:07.871Z,18.50
2018-10-19T12:56:36.700Z,18.60
2018-10-19T12:59:05.545Z,18.60
2018-10-19T13:01:34.412Z,18.60
2018-10-19T13:04:03.264Z,18.60
2018-10-19T13:06:32.100Z,18.60
2018-10-19T13:09:00.999Z,18.70
2018-10-19T13:11:29.799Z,18.70
2018-10-19T13:13:58.644Z,18.80
2018-10-19T13:16:27.489Z,18.80
2018-10-19T13:18:56.368Z,18.90
2018-10-19T13:21:25.185Z,18.90
2018-10-19T13:23:54.086Z,18.80
2018-10-19T13:26:22.899Z,18.80
2018-10-19T13:28:52.482Z,18.80
2018-10-19T13:31:21.333Z,18.90
2018-10-19T13:33:50.179Z,19.10
2018-10-19T13:36:19.013Z,19.20
2018-10-19T13:38:47.855Z,19.20
2018-10-19T13:41:16.702Z,19.30
2018-10-19T13:43:45.551Z,19.30
2018-10-19T13:46:15.141Z,19.30
2018-10-19T13:48:43.998Z,19.40
2018-10-19T13:51:12.914Z,19.50
2018-10-19T13:53:41.708Z,19.40
2018-10-19T13:56:10.563Z,19.30
2018-10-19T13:58:40.467Z,19.40
2018-10-19T14:01:09.359Z,19.40
2018-10-19T14:03:38.200Z,19.40
2018-10-19T14:06:07.057Z,19.50
2018-10-19T14:08:35.905Z,19.60
2018-10-19T14:11:04.813Z,19.50
2018-10-19T14:16:03.796Z,19.40
2018-10-19T14:18:32.660Z,19.50
2018-10-19T14:21:01.527Z,19.60
2018-10-19T14:23:30.346Z,19.50
2018-10-19T14:26:00.053Z,19.50
2018-10-19T14:30:08.221Z,19.40
2018-10-19T14:32:37.065Z,19.50
2018-10-19T14:35:06.694Z,19.50
2018-10-19T14:37:35.676Z,19.50
2018-10-19T14:40:04.603Z,19.50
2018-10-19T14:42:33.360Z,19.50
2018-10-19T14:45:02.276Z,19.40
2018-10-19T14:47:31.086Z,19.40
2018-10-19T14:49:59.926Z,19.40
2018-10-19T14:52:29.501Z,19.40
2018-10-19T14:54:58.370Z,19.30
2018-10-19T14:57:27.229Z,19.30
2018-10-19T14:59:56.076Z,19.20
2018-10-19T15:02:25.673Z,19.20
2018-10-19T15:04:54.565Z,19.10
2018-10-19T15:07:23.376Z,19.10
2018-10-19T15:09:53.110Z,19.10
2018-10-19T15:12:21.844Z,19.10
2018-10-19T15:14:50.654Z,19.00
2018-10-19T15:17:19.503Z,19.00
2018-10-19T15:19:48.380Z,18.90
2018-10-19T15:22:17.215Z,18.90
2018-10-19T15:24:46.058Z,18.80
2018-10-19T15:27:15.003Z,18.80
2018-10-19T15:29:43.793Z,18.70
2018-10-19T15:32:12.636Z,18.70
2018-10-19T15:34:41.516Z,18.60
2018-10-19T15:37:10.382Z,18.60
2018-10-19T15:39:39.958Z,18.50
2018-10-19T15:42:08.896Z,18.50
2018-10-19T15:44:37.657Z,18.40
2018-10-19T15:47:07.240Z,18.40
2018-10-19T15:49:36.088Z,18.30
2018-10-19T15:52:04.922Z,18.30
2018-10-19T15:54:33.785Z,18.20
2018-10-19T15:57:02.679Z,18.20
2018-10-19T15:59:31.490Z,18.10
2018-10-19T16:02:00.353Z,18.00
2018-10-19T16:04:29.194Z,18.00
2018-10-19T16:06:58.051Z,18.00
2018-10-19T16:09:26.888Z,17.90
2018-10-19T16:11:55.780Z,17.80
2018-10-19T16:14:25.329Z,17.80
2018-10-19T16:16:54.273Z,17.80
2018-10-19T16:19:23.122Z,17.70
2018-10-19T16:21:51.981Z,17.60
2018-10-19T16:24:20.819Z,17.60
2018-10-19T16:26:50.407Z,17.50
2018-10-19T16:29:19.255Z,17.40
2018-10-19T16:31:48.108Z,17.40
2018-10-19T16:34:17.697Z,17.30
2018-10-19T16:36:47.286Z,17.20
2018-10-19T16:41:45.600Z,17.10
2018-10-19T16:44:14.454Z,17.00
2018-10-19T16:46:43.305Z,17.00
2018-10-19T16:49:12.178Z,16.90
2018-10-19T16:51:41.028Z,16.90
2018-10-19T16:54:10.729Z,16.80
2018-10-19T16:56:39.501Z,16.70
2018-10-19T16:59:08.358Z,16.70
2018-10-19T17:01:37.944Z,16.60
2018-10-19T17:04:06.819Z,16.60
2018-10-19T17:06:35.636Z,16.60
2018-10-19T17:09:05.248Z,16.60
2018-10-19T17:11:34.106Z,16.50
2018-10-19T17:14:02.950Z,16.40
2018-10-19T17:16:31.817Z,16.40
2018-10-19T17:19:01.411Z,16.30
2018-10-19T17:21:30.242Z,16.30
2018-10-19T17:23:59.176Z,16.30
2018-10-19T17:26:28.693Z,16.20
2018-10-19T17:28:57.598Z,16.20
2018-10-19T17:31:26.443Z,16.20
2018-10-19T17:33:55.271Z,16.10
2018-10-19T17:36:24.855Z,16.00
2018-10-19T17:38:53.765Z,15.90
2018-10-19T17:41:22.594Z,15.90
2018-10-19T17:43:51.430Z,15.90
2018-10-19T17:46:20.278Z,15.80
2018-10-19T17:48:49.121Z,15.80
2018-10-19T17:51:17.967Z,15.80
2018-10-19T17:53:46.849Z,15.70
2018-10-19T17:56:15.666Z,15.60
2018-10-19T17:58:44.522Z,15.70
2018-10-19T18:01:13.397Z,15.60
2018-10-19T18:03:42.232Z,15.60
2018-10-19T18:06:11.144Z,15.60
2018-10-19T18:08:39.949Z,15.60
2018-10-19T18:11:09.565Z,15.60
2018-10-19T18:13:39.131Z,15.50
2018-10-19T18:16:08.058Z,15.50
2018-10-19T18:18:36.841Z,15.30
2018-10-19T18:21:05.760Z,15.40
2018-10-19T18:23:35.349Z,15.30
2018-10-19T18:26:04.258Z,15.40
2018-10-19T18:28:33.033Z,15.20
2018-10-19T18:31:01.922Z,15.10
2018-10-19T18:33:30.726Z,15.10
2018-10-19T18:35:59.575Z,15.10
2018-10-19T18:38:29.157Z,15.00
2018-10-19T18:40:58.097Z,15.00
2018-10-19T18:43:26.876Z,15.10
2018-10-19T18:45:55.811Z,15.10
2018-10-19T18:48:24.627Z,15.10
2018-10-19T18:50:53.507Z,15.00
2018-10-19T18:53:22.356Z,15.00
2018-10-19T18:55:51.198Z,14.90
2018-10-19T18:58:20.052Z,14.90
2018-10-19T19:00:48.894Z,14.90
2018-10-19T19:03:17.732Z,14.80
2018-10-19T19:05:46.573Z,14.70
2018-10-19T19:08:15.514Z,14.70
2018-10-19T19:10:44.297Z,14.70
2018-10-19T19:13:13.145Z,14.70
2018-10-19T19:15:42.015Z,14.60
2018-10-19T19:18:10.868Z,14.60
2018-10-19T19:20:39.708Z,14.50
2018-10-19T19:23:08.595Z,14.50
2018-10-19T19:25:43.208Z,14.50
2018-10-19T19:28:12.796Z,14.50
2018-10-19T19:30:42.381Z,14.40
2018-10-19T19:33:11.225Z,14.50
2018-10-19T19:35:40.076Z,14.40
2018-10-19T19:38:08.936Z,14.40
2018-10-19T19:40:37.759Z,14.30
2018-10-19T19:43:06.608Z,14.30
2018-10-19T19:45:35.456Z,14.30
2018-10-19T19:48:04.312Z,14.30
2018-10-19T19:50:33.173Z,14.10
2018-10-19T19:53:02.030Z,14.00
2018-10-19T19:55:31.639Z,14.00
2018-10-19T19:58:00.488Z,14.10
2018-10-19T20:00:29.326Z,14.00
2018-10-19T20:02:58.155Z,14.00
2018-10-19T20:05:26.994Z,14.00
2018-10-19T20:07:55.867Z,13.90
2018-10-19T20:10:24.706Z,13.80
2018-10-19T20:12:53.573Z,13.80
2018-10-19T20:15:22.408Z,13.90
2018-10-19T20:17:51.244Z,13.90
2018-10-19T20:20:20.120Z,13.80
2018-10-19T20:22:49.708Z,13.80
2018-10-19T20:25:18.573Z,13.90
2018-10-19T20:27:47.413Z,13.80
2018-10-19T20:30:17.021Z,13.80
2018-10-19T20:32:46.628Z,13.80
2018-10-19T20:35:16.285Z,13.80
2018-10-19T20:37:45.074Z,13.80
2018-10-19T20:40:13.914Z,13.80
2018-10-19T20:42:43.507Z,13.70
2018-10-19T20:45:13.116Z,13.70
2018-10-19T20:47:42.726Z,13.70
2018-10-19T20:50:12.355Z,13.70
2018-10-19T20:52:41.200Z,13.80
2018-10-19T20:55:10.049Z,13.80
2018-10-19T20:57:38.896Z,13.70
2018-10-19T21:00:08.482Z,13.60
2018-10-19T21:02:37.388Z,13.70
2018-10-19T21:05:06.228Z,13.70
2018-10-19T21:07:35.144Z,13.70
2018-10-19T21:10:03.906Z,13.70
2018-10-19T21:12:32.742Z,13.60
2018-10-19T21:15:02.397Z,13.60
2018-10-19T21:17:31.247Z,13.60
2018-10-19T21:20:00.871Z,13.60
2018-10-19T21:24:59.870Z,13.50
2018-10-19T21:27:28.715Z,13.40
2018-10-19T21:29:57.600Z,13.40
2018-10-19T21:32:26.409Z,13.30
2018-10-19T21:34:55.293Z,13.30
2018-10-19T21:37:24.115Z,13.20
2018-10-19T21:39:52.964Z,13.30
2018-10-19T21:42:21.820Z,13.20
2018-10-19T21:44:50.677Z,13.30
2018-10-19T21:47:19.529Z,13.10
2018-10-19T21:49:48.386Z,13.20
2018-10-19T21:52:17.255Z,13.20
2018-10-19T21:54:46.846Z,13.10
2018-10-19T21:57:15.679Z,13.20
2018-10-19T21:59:44.536Z,13.20
2018-10-19T22:02:13.454Z,13.20
2018-10-19T22:04:42.210Z,13.10
2018-10-19T22:07:11.838Z,13.10
2018-10-19T22:09:40.668Z,13.30
2018-10-19T22:12:09.502Z,13.20
2018-10-19T22:14:39.105Z,13.10
2018-10-19T22:17:08.040Z,13.00
2018-10-19T22:19:36.832Z,13.10
2018-10-19T22:22:05.674Z,13.10
2018-10-19T22:24:35.258Z,13.00
2018-10-19T22:27:04.114Z,13.00
2018-10-19T22:29:32.963Z,13.00
2018-10-19T22:32:01.820Z,12.90
2018-10-19T22:34:30.672Z,12.80
2018-10-19T22:36:59.538Z,12.70
2018-10-19T22:39:28.377Z,12.70
2018-10-19T22:41:57.236Z,12.60
2018-10-19T22:44:26.096Z,12.60
2018-10-19T22:46:55.738Z,12.50
2018-10-19T22:49:25.304Z,12.60
2018-10-19T22:51:54.165Z,12.70
2018-10-19T22:54:23.036Z,12.70
2018-10-19T22:56:51.872Z,12.50
2018-10-19T22:59:20.727Z,12.50
2018-10-19T23:01:49.579Z,12.60
2018-10-19T23:04:18.426Z,12.60
2018-10-19T23:06:47.268Z,12.60
2018-10-19T23:09:16.106Z,12.50
2018-10-19T23:11:44.953Z,12.50
2018-10-19T23:14:13.804Z,12.60
2018-10-19T23:16:42.636Z,12.60
2018-10-19T23:19:11.702Z,12.50
2018-10-19T23:21:40.372Z,12.50
2018-10-19T23:24:09.174Z,12.50
2018-10-19T23:26:38.021Z,12.50
2018-10-19T23:31:37.140Z,12.40
2018-10-19T23:34:05.866Z,12.50
2018-10-19T23:36:34.708Z,12.40
2018-10-19T23:39:03.555Z,12.40
2018-10-19T23:41:32.396Z,12.30
2018-10-19T23:44:01.239Z,12.30
2018-10-19T23:46:30.084Z,12.20
2018-10-19T23:48:58.918Z,12.30
2018-10-19T23:51:27.748Z,12.30
2018-10-19T23:53:56.591Z,12.40
2018-10-19T23:56:25.422Z,12.40
2018-10-19T23:58:54.261Z,12.40
